createdAt,value
2022-08-20T00:00:42.285Z,17.10
2022-08-20T00:03:16.703Z,13.10
2022-08-20T00:05:52.351Z,10.57
2022-08-20T00:08:29.663Z,13.18
2022-08-20T00:11:01.800Z,12.90
2022-08-20T00:13:36.873Z,12.25
2022-08-20T00:16:08.351Z,14.98
2022-08-20T00:18:38.734Z,10.90
2022-08-20T00:21:12.244Z,15.10
2022-08-20T00:23:52.413Z,14.13
2022-08-20T00:26:23.944Z,12.88
2022-08-20T00:28:55.135Z,11.82
2022-08-20T00:31:26.676Z,12.65
2022-08-20T00:33:56.833Z,11.65
2022-08-20T00:36:32.587Z,18.30
2022-08-20T00:39:08.442Z,10.25
2022-08-20T00:41:38.851Z,17.52
2022-08-20T00:44:14.044Z,11.07
2022-08-20T00:46:45.995Z,19.65
2022-08-20T00:49:20.153Z,12.60
2022-08-20T00:51:53.291Z,12.73
2022-08-20T00:54:29.785Z,14.85
2022-08-20T00:57:03.705Z,12.70
2022-08-20T00:59:36.592Z,14.45
2022-08-20T01:02:11.035Z,16.88
2022-08-20T01:04:44.023Z,13.68
2022-08-20T01:07:14.414Z,15.07
2022-08-20T01:09:57.972Z,15.47
2022-08-20T01:12:32.727Z,16.20
2022-08-20T01:15:04.844Z,20.75
2022-08-20T01:17:38.281Z,14.95
2022-08-20T01:20:12.461Z,15.68
2022-08-20T01:23:04.911Z,16.77
2022-08-20T01:25:44.082Z,15.27
2022-08-20T01:28:16.532Z,16.38
2022-08-20T01:30:47.103Z,17.00
2022-08-20T01:38:19.212Z,18.52
2022-08-20T01:41:09.712Z,18.80
2022-08-20T01:43:42.037Z,18.55
2022-08-20T01:46:14.187Z,19.48
2022-08-20T01:48:47.643Z,18.90
2022-08-20T01:51:21.354Z,20.65
2022-08-20T01:53:54.855Z,18.45
2022-08-20T01:56:30.905Z,19.15
2022-08-20T01:59:06.862Z,19.42
2022-08-20T02:01:46.142Z,18.38
2022-08-20T02:04:18.582Z,22.42
2022-08-20T02:06:58.341Z,18.02
2022-08-20T02:09:29.822Z,18.67
2022-08-20T02:12:03.373Z,18.35
2022-08-20T02:14:35.055Z,19.92
2022-08-20T02:17:07.353Z,19.35
2022-08-20T02:19:43.982Z,21.33
2022-08-20T02:22:20.763Z,20.73
2022-08-20T02:24:51.997Z,20.13
2022-08-20T02:27:24.612Z,18.40
2022-08-20T02:29:55.619Z,17.88
2022-08-20T02:32:33.984Z,17.85
2022-08-20T02:35:08.774Z,21.05
2022-08-20T02:37:39.502Z,18.48
2022-08-20T02:45:19.125Z,20.30
2022-08-20T02:47:51.169Z,18.30
2022-08-20T02:50:24.025Z,18.33
2022-08-20T02:52:54.390Z,18.02
2022-08-20T02:55:28.046Z,24.30
2022-08-20T02:58:01.401Z,19.20
2022-08-20T03:00:38.458Z,21.83
2022-08-20T03:03:10.365Z,21.60
2022-08-20T03:05:42.817Z,17.70
2022-08-20T03:08:15.101Z,18.63
2022-08-20T03:10:47.659Z,20.17
2022-08-20T03:13:20.380Z,21.52
2022-08-20T03:15:55.359Z,23.98
2022-08-20T03:18:31.706Z,20.45
2022-08-20T03:21:01.938Z,18.40
2022-08-20T03:23:32.453Z,19.65
2022-08-20T03:26:06.510Z,20.05
2022-08-20T03:28:38.718Z,21.83
2022-08-20T03:31:09.733Z,25.42
2022-08-20T03:33:53.133Z,20.45
2022-08-20T03:36:28.525Z,21.75
2022-08-20T03:39:00.241Z,21.45
2022-08-20T03:41:32.459Z,20.13
2022-08-20T03:44:04.959Z,20.15
2022-08-20T03:46:35.433Z,20.52
2022-08-20T03:49:05.409Z,22.30
2022-08-20T03:51:57.119Z,21.35
2022-08-20T03:54:30.194Z,20.65
2022-08-20T03:57:05.158Z,21.92
2022-08-20T03:59:46.030Z,21.38
2022-08-20T04:02:20.020Z,27.05
2022-08-20T04:04:50.768Z,25.02
2022-08-20T04:07:26.090Z,23.00
2022-08-20T04:09:57.997Z,22.85
2022-08-20T04:12:28.469Z,21.33
2022-08-20T04:15:01.092Z,30.17
2022-08-20T04:17:33.387Z,20.73
2022-08-20T04:20:05.670Z,21.83
2022-08-20T04:22:35.849Z,23.10
2022-08-20T04:25:09.250Z,22.75
2022-08-20T04:27:40.380Z,22.17
2022-08-20T04:30:14.939Z,21.60
2022-08-20T04:32:45.853Z,21.27
2022-08-20T04:35:18.339Z,24.48
2022-08-20T04:37:49.735Z,22.73
2022-08-20T04:40:38.609Z,24.10
2022-08-20T04:43:08.683Z,27.58
2022-08-20T04:45:45.104Z,26.13
2022-08-20T04:48:15.935Z,21.35
2022-08-20T04:50:48.145Z,20.73
2022-08-20T04:53:25.274Z,23.75
2022-08-20T04:55:57.623Z,20.10
2022-08-20T04:58:30.573Z,21.52
2022-08-20T05:01:05.592Z,21.67
2022-08-20T05:03:37.885Z,26.25
2022-08-20T05:06:09.713Z,26.95
2022-08-20T05:08:39.994Z,24.90
2022-08-20T05:11:30.041Z,26.15
2022-08-20T05:14:01.295Z,27.77
2022-08-20T05:16:38.134Z,28.15
2022-08-20T05:19:09.332Z,24.38
2022-08-20T05:21:39.843Z,27.90
2022-08-20T05:24:11.653Z,27.27
2022-08-20T05:26:42.143Z,26.38
2022-08-20T05:29:12.575Z,26.05
2022-08-20T05:31:44.582Z,27.38
2022-08-20T05:34:15.192Z,27.17
2022-08-20T05:36:49.867Z,29.77
2022-08-20T05:39:20.954Z,26.98
2022-08-20T05:41:52.292Z,28.58
2022-08-20T05:44:24.326Z,32.00
2022-08-20T05:46:55.822Z,34.97
2022-08-20T05:49:26.433Z,35.15
2022-08-20T05:51:56.532Z,32.55
2022-08-20T05:54:26.795Z,32.23
2022-08-20T05:56:57.772Z,35.47
2022-08-20T05:59:28.212Z,34.70
2022-08-20T06:02:00.295Z,34.22
2022-08-20T06:04:32.191Z,32.13
2022-08-20T06:07:06.183Z,34.67
2022-08-20T06:09:36.615Z,34.17
2022-08-20T06:12:09.276Z,36.17
2022-08-20T06:14:39.372Z,33.22
2022-08-20T06:17:15.512Z,32.83
2022-08-20T06:19:48.574Z,33.58
2022-08-20T06:22:26.019Z,37.20
2022-08-20T06:24:57.942Z,33.08
2022-08-20T06:27:28.482Z,35.83
2022-08-20T06:29:59.037Z,31.57
2022-08-20T06:32:32.754Z,28.65
2022-08-20T06:35:04.095Z,27.40
2022-08-20T06:37:37.562Z,31.52
2022-08-20T06:40:11.467Z,30.08
2022-08-20T06:42:48.215Z,28.90
2022-08-20T06:45:21.902Z,28.73
2022-08-20T06:47:56.058Z,24.92
2022-08-20T06:50:28.603Z,32.25
2022-08-20T06:52:59.002Z,27.35
2022-08-20T06:55:30.893Z,24.57
2022-08-20T06:58:03.309Z,25.73
2022-08-20T07:00:35.042Z,26.13
2022-08-20T07:03:07.932Z,23.20
2022-08-20T07:05:42.451Z,29.58
2022-08-20T07:08:15.464Z,24.13
2022-08-20T07:10:46.374Z,25.15
2022-08-20T07:13:17.310Z,22.13
2022-08-20T07:15:47.712Z,20.40
2022-08-20T07:18:28.138Z,23.08
2022-08-20T07:20:59.443Z,18.40
2022-08-20T07:23:31.292Z,18.60
2022-08-20T07:26:01.722Z,18.83
2022-08-20T07:28:32.771Z,21.10
2022-08-20T07:31:20.388Z,25.05
2022-08-20T07:33:52.874Z,18.40
2022-08-20T07:36:23.923Z,20.05
2022-08-20T07:38:54.747Z,19.02
2022-08-20T07:41:27.102Z,18.50
2022-08-20T07:43:57.692Z,20.02
2022-08-20T07:46:31.332Z,18.20
2022-08-20T07:49:05.724Z,20.10
2022-08-20T07:51:36.952Z,21.65
2022-08-20T07:54:07.604Z,14.10
2022-08-20T07:56:37.933Z,19.35
2022-08-20T07:59:08.303Z,14.52
2022-08-20T08:01:38.572Z,17.38
2022-08-20T08:04:10.403Z,19.90
2022-08-20T08:06:40.843Z,17.80
2022-08-20T08:09:14.783Z,20.63
2022-08-20T08:11:50.492Z,16.95
2022-08-20T08:14:27.094Z,14.63
2022-08-20T08:16:59.438Z,16.70
2022-08-20T08:19:38.572Z,15.55
2022-08-20T08:22:13.002Z,17.77
2022-08-20T08:24:57.335Z,16.85
2022-08-20T08:27:33.294Z,20.23
2022-08-20T08:30:04.234Z,16.33
2022-08-20T08:32:36.444Z,17.75
2022-08-20T08:35:09.692Z,16.13
2022-08-20T08:37:40.206Z,15.85
2022-08-20T08:40:11.376Z,14.98
2022-08-20T08:42:46.561Z,14.75
2022-08-20T08:45:19.233Z,20.45
2022-08-20T08:47:50.827Z,15.65
2022-08-20T08:53:22.174Z,18.45
2022-08-20T08:55:52.253Z,18.02
2022-08-20T08:58:24.332Z,18.15
2022-08-20T09:00:56.315Z,17.10
2022-08-20T09:03:31.813Z,18.98
2022-08-20T09:06:04.855Z,17.20
2022-08-20T09:08:43.923Z,17.15
2022-08-20T09:11:14.133Z,16.83
2022-08-20T09:13:45.522Z,12.52
2022-08-20T09:16:16.504Z,16.00
2022-08-20T09:18:47.702Z,14.13
2022-08-20T09:21:34.250Z,14.85
2022-08-20T09:24:06.402Z,13.82
2022-08-20T09:26:39.042Z,16.08
2022-08-20T09:29:11.866Z,12.13
2022-08-20T09:31:42.943Z,14.95
2022-08-20T09:34:13.812Z,14.13
2022-08-20T09:36:45.522Z,12.48
2022-08-20T09:39:16.198Z,15.57
2022-08-20T09:41:46.490Z,11.60
2022-08-20T09:44:18.290Z,17.92
2022-08-20T09:46:48.497Z,17.20
2022-08-20T09:49:19.424Z,15.50
2022-08-20T09:51:51.160Z,15.20
2022-08-20T09:54:22.120Z,17.88
2022-08-20T09:56:52.216Z,18.42
2022-08-20T09:59:22.601Z,18.60
2022-08-20T10:01:52.701Z,20.02
2022-08-20T10:04:23.092Z,13.82
2022-08-20T10:06:54.742Z,14.57
2022-08-20T10:09:25.536Z,13.55
2022-08-20T10:11:55.655Z,16.27
2022-08-20T10:14:26.615Z,17.02
2022-08-20T10:16:59.892Z,17.77
2022-08-20T10:19:31.628Z,14.52
2022-08-20T10:22:03.724Z,15.00
2022-08-20T10:24:34.345Z,17.10
2022-08-20T10:27:04.875Z,19.55
2022-08-20T10:29:35.237Z,19.27
2022-08-20T10:32:13.098Z,14.82
2022-08-20T10:34:44.964Z,19.02
2022-08-20T10:37:20.262Z,14.50
2022-08-20T10:39:50.755Z,16.23
2022-08-20T10:42:20.910Z,14.60
2022-08-20T10:44:51.335Z,18.58
2022-08-20T10:47:25.855Z,16.48
2022-08-20T10:49:59.603Z,16.67
2022-08-20T10:52:31.943Z,14.45
2022-08-20T10:55:04.513Z,15.25
2022-08-20T10:57:35.844Z,15.18
2022-08-20T11:00:08.833Z,13.35
2022-08-20T11:02:39.026Z,16.80
2022-08-20T11:05:11.478Z,17.95
2022-08-20T11:07:55.565Z,16.80
2022-08-20T11:10:28.658Z,16.45
2022-08-20T11:12:58.803Z,13.35
2022-08-20T11:15:29.534Z,14.00
2022-08-20T11:17:59.792Z,14.95
2022-08-20T11:20:32.193Z,15.07
2022-08-20T11:23:03.884Z,18.63
2022-08-20T11:25:34.322Z,18.02
2022-08-20T11:28:04.944Z,16.92
2022-08-20T11:30:37.933Z,16.60
2022-08-20T11:33:08.714Z,19.98
2022-08-20T11:35:48.715Z,16.23
2022-08-20T11:38:21.565Z,17.45
2022-08-20T11:40:52.013Z,16.15
2022-08-20T11:43:22.034Z,18.30
2022-08-20T11:45:56.564Z,16.45
2022-08-20T11:48:26.843Z,16.63
2022-08-20T11:50:56.993Z,17.25
2022-08-20T11:53:28.944Z,15.40
2022-08-20T11:56:01.615Z,15.88
2022-08-20T11:58:34.017Z,17.23
2022-08-20T12:01:04.235Z,17.17
2022-08-20T12:03:34.543Z,16.88
2022-08-20T12:06:04.693Z,16.30
2022-08-20T12:08:36.575Z,17.38
2022-08-20T12:11:07.103Z,14.70
2022-08-20T12:13:48.481Z,17.70
2022-08-20T12:16:21.026Z,14.27
2022-08-20T12:18:52.153Z,20.33
2022-08-20T12:21:22.783Z,18.10
2022-08-20T12:23:55.044Z,17.08
2022-08-20T12:26:25.144Z,17.98
2022-08-20T12:28:56.263Z,15.73
2022-08-20T12:31:26.382Z,14.48
2022-08-20T12:33:57.212Z,17.42
2022-08-20T12:38:59.331Z,21.70
2022-08-20T12:41:29.586Z,24.30
2022-08-20T12:43:59.920Z,26.95
2022-08-20T12:46:30.029Z,28.58
2022-08-20T12:49:01.059Z,28.10
2022-08-20T12:51:31.899Z,28.30
2022-08-20T12:56:33.547Z,30.70
2022-08-20T12:59:03.897Z,32.50
2022-08-20T13:01:33.900Z,33.00
2022-08-20T13:04:04.258Z,31.92
2022-08-20T13:06:34.227Z,28.08
2022-08-20T13:09:05.698Z,23.37
2022-08-20T13:11:36.018Z,20.63
2022-08-20T13:14:06.177Z,15.77
2022-08-20T13:16:36.538Z,16.95
2022-08-20T13:19:07.044Z,15.90
2022-08-20T13:21:37.076Z,17.20
2022-08-20T13:24:10.067Z,19.23
2022-08-20T13:26:40.269Z,20.58
2022-08-20T13:29:10.655Z,22.30
2022-08-20T13:31:40.959Z,21.80
2022-08-20T13:34:12.067Z,25.13
2022-08-20T13:39:14.119Z,16.10
2022-08-20T13:41:44.859Z,14.63
2022-08-20T13:46:45.547Z,19.98
2022-08-20T13:49:16.191Z,21.75
2022-08-20T13:51:46.599Z,24.60
2022-08-20T13:54:27.140Z,31.08
2022-08-20T13:57:07.952Z,28.25
2022-08-20T13:59:39.440Z,31.20
2022-08-20T14:02:11.097Z,32.47
2022-08-20T14:04:42.492Z,31.52
2022-08-20T14:07:14.700Z,30.55
2022-08-20T14:09:48.581Z,30.20
2022-08-20T14:12:19.530Z,32.05
2022-08-20T14:17:23.720Z,31.50
2022-08-20T14:20:00.677Z,29.48
2022-08-20T14:22:31.938Z,30.27
2022-08-20T14:25:04.229Z,37.47
2022-08-20T14:27:35.668Z,28.75
2022-08-20T14:30:08.785Z,27.42
2022-08-20T14:32:39.148Z,30.95
2022-08-20T14:35:10.587Z,26.85
2022-08-20T14:37:43.070Z,28.58
2022-08-20T14:40:19.336Z,26.02
2022-08-20T14:42:51.425Z,27.92
2022-08-20T14:45:23.707Z,28.48
2022-08-20T14:47:55.685Z,25.10
2022-08-20T14:50:28.618Z,28.33
2022-08-20T14:52:59.398Z,25.60
2022-08-20T14:55:34.311Z,24.33
2022-08-20T14:58:07.710Z,28.15
2022-08-20T15:00:38.352Z,27.40
2022-08-20T15:03:08.895Z,28.77
2022-08-20T15:05:40.807Z,24.42
2022-08-20T15:08:11.655Z,23.23
2022-08-20T15:10:44.836Z,28.35
2022-08-20T15:13:15.055Z,27.83
2022-08-20T15:15:45.875Z,26.90
2022-08-20T15:18:15.917Z,28.83
2022-08-20T15:20:46.326Z,28.27
2022-08-20T15:23:16.467Z,26.73
2022-08-20T15:25:48.028Z,29.07
2022-08-20T15:28:18.639Z,24.77
2022-08-20T15:30:48.960Z,27.03
2022-08-20T15:33:19.459Z,25.77
2022-08-20T15:35:50.820Z,25.90
2022-08-20T15:38:21.649Z,28.05
2022-08-20T15:40:53.398Z,26.52
2022-08-20T15:43:24.296Z,26.35
2022-08-20T15:45:54.410Z,25.67
2022-08-20T15:48:34.680Z,25.67
2022-08-20T15:51:27.840Z,28.75
2022-08-20T15:54:03.150Z,25.58
2022-08-20T15:56:49.541Z,24.75
2022-08-20T15:59:41.171Z,23.63
2022-08-20T16:02:25.983Z,29.20
2022-08-20T16:05:20.180Z,23.98
2022-08-20T16:08:01.198Z,24.17
2022-08-20T16:10:43.258Z,25.48
2022-08-20T16:13:31.648Z,22.27
2022-08-20T16:16:05.155Z,26.30
2022-08-20T16:18:39.099Z,21.80
2022-08-20T16:21:13.734Z,25.85
2022-08-20T16:23:45.795Z,21.20
2022-08-20T16:27:12.867Z,26.02
2022-08-20T16:29:55.236Z,26.20
2022-08-20T16:32:36.435Z,23.08
2022-08-20T16:35:31.406Z,23.77
2022-08-20T16:38:20.842Z,22.40
2022-08-20T16:40:57.952Z,26.48
2022-08-20T16:43:35.550Z,26.33
2022-08-20T16:46:17.042Z,28.25
2022-08-20T16:48:53.041Z,26.17
2022-08-20T16:51:34.602Z,26.27
2022-08-20T16:54:05.585Z,22.48
2022-08-20T16:56:39.734Z,20.70
2022-08-20T16:59:11.990Z,19.92
2022-08-20T17:02:01.810Z,21.25
2022-08-20T17:04:50.533Z,20.42
2022-08-20T17:07:43.326Z,22.92
2022-08-20T17:10:20.883Z,20.35
2022-08-20T17:12:59.693Z,23.33
2022-08-20T17:15:33.115Z,23.63
2022-08-20T17:18:21.323Z,26.40
2022-08-20T17:20:51.804Z,27.45
2022-08-20T17:23:24.420Z,21.13
2022-08-20T17:26:01.134Z,23.80
2022-08-20T17:28:35.414Z,21.77
2022-08-20T17:31:06.775Z,20.40
2022-08-20T17:33:42.567Z,19.85
2022-08-20T17:36:21.543Z,19.63
2022-08-20T17:38:55.394Z,20.08
2022-08-20T17:41:28.953Z,21.55
2022-08-20T17:44:02.523Z,20.83
2022-08-20T17:46:37.585Z,24.15
2022-08-20T17:49:12.144Z,23.60
2022-08-20T17:51:49.231Z,22.95
2022-08-20T17:54:24.188Z,20.40
2022-08-20T17:56:57.708Z,21.65
2022-08-20T18:00:00.327Z,21.63
2022-08-20T18:02:24.713Z,24.23
2022-08-20T18:04:58.272Z,19.65
2022-08-20T18:07:32.740Z,23.05
2022-08-20T18:10:08.328Z,21.80
2022-08-20T18:12:43.415Z,21.02
2022-08-20T18:15:23.780Z,21.00
2022-08-20T18:18:15.995Z,22.83
2022-08-20T18:21:07.375Z,28.73
2022-08-20T18:23:41.531Z,24.98
2022-08-20T18:26:23.209Z,26.55
2022-08-20T18:28:58.193Z,25.83
2022-08-20T18:31:31.963Z,26.48
2022-08-20T18:34:14.232Z,31.23
2022-08-20T18:36:59.217Z,31.45
2022-08-20T18:39:33.958Z,33.55
2022-08-20T18:42:07.854Z,33.08
2022-08-20T18:44:43.969Z,31.90
2022-08-20T18:47:25.277Z,30.60
2022-08-20T18:50:15.884Z,32.08
2022-08-20T18:55:33.060Z,33.78
2022-08-20T18:58:08.307Z,34.40
2022-08-20T19:00:43.270Z,33.50
2022-08-20T19:03:45.970Z,30.98
2022-08-20T19:06:31.459Z,32.22
2022-08-20T19:09:54.159Z,29.13
2022-08-20T19:12:43.922Z,29.10
2022-08-20T19:15:20.179Z,27.73
2022-08-20T19:18:03.559Z,28.45
2022-08-20T19:20:36.289Z,27.70
2022-08-20T19:23:14.421Z,31.75
2022-08-20T19:25:55.541Z,30.80
2022-08-20T19:31:10.182Z,30.38
2022-08-20T19:33:44.257Z,32.20
2022-08-20T19:36:16.942Z,30.80
2022-08-20T19:38:52.964Z,30.92
2022-08-20T19:41:31.364Z,31.02
2022-08-20T19:44:03.422Z,30.20
2022-08-20T19:46:38.134Z,30.15
2022-08-20T19:49:20.790Z,29.27
2022-08-20T19:52:05.130Z,30.17
2022-08-20T19:54:49.694Z,29.63
2022-08-20T19:57:23.686Z,29.20
2022-08-20T19:59:59.522Z,32.13
2022-08-20T20:02:32.203Z,30.80
2022-08-20T20:05:05.787Z,32.22
2022-08-20T20:07:41.814Z,31.90
2022-08-20T20:10:32.261Z,29.83
2022-08-20T20:13:10.747Z,30.10
2022-08-20T20:15:41.859Z,32.42
2022-08-20T20:18:13.469Z,32.83
2022-08-20T20:20:56.966Z,32.83
2022-08-20T20:23:45.548Z,33.38
2022-08-20T20:26:20.370Z,31.23
2022-08-20T20:28:55.847Z,31.63
2022-08-20T20:31:30.355Z,33.20
2022-08-20T20:34:11.441Z,33.60
2022-08-20T20:39:28.427Z,32.13
2022-08-20T20:42:01.988Z,32.28
2022-08-20T20:44:37.451Z,33.53
2022-08-20T20:47:19.068Z,33.78
2022-08-20T20:52:24.399Z,32.72
2022-08-20T20:55:05.490Z,33.03
2022-08-20T21:00:14.678Z,33.30
2022-08-20T21:02:45.393Z,35.40
2022-08-20T21:05:18.036Z,36.13
2022-08-20T21:07:52.790Z,33.13
2022-08-20T21:10:25.048Z,32.60
2022-08-20T21:12:56.192Z,34.28
2022-08-20T21:18:01.798Z,33.78
2022-08-20T21:20:32.040Z,32.28
2022-08-20T21:23:02.799Z,32.20
2022-08-20T21:25:35.438Z,31.33
2022-08-20T21:28:06.528Z,30.73
2022-08-20T21:30:38.190Z,29.08
2022-08-20T21:33:08.570Z,30.17
2022-08-20T21:35:38.558Z,30.75
2022-08-20T21:38:08.970Z,30.08
2022-08-20T21:40:39.218Z,31.58
2022-08-20T21:43:12.158Z,29.73
2022-08-20T21:45:44.019Z,29.23
2022-08-20T21:48:14.480Z,30.10
2022-08-20T21:50:45.129Z,28.60
2022-08-20T21:53:15.671Z,30.13
2022-08-20T21:55:45.970Z,28.92
2022-08-20T21:58:16.896Z,28.10
2022-08-20T22:00:58.964Z,27.67
2022-08-20T22:03:32.548Z,28.08
2022-08-20T22:06:03.458Z,28.67
2022-08-20T22:08:33.689Z,26.67
2022-08-20T22:11:05.727Z,26.10
2022-08-20T22:13:36.908Z,28.27
2022-08-20T22:16:11.548Z,32.08
2022-08-20T22:18:42.269Z,29.30
2022-08-20T22:21:16.647Z,30.13
2022-08-20T22:23:46.861Z,29.65
2022-08-20T22:26:17.912Z,28.90
2022-08-20T22:28:51.188Z,29.05
2022-08-20T22:31:27.471Z,29.52
2022-08-20T22:33:58.447Z,28.73
2022-08-20T22:36:31.027Z,30.35
2022-08-20T22:39:01.929Z,28.80
2022-08-20T22:44:02.169Z,28.63
2022-08-20T22:46:37.457Z,29.33
2022-08-20T22:49:12.657Z,30.58
2022-08-20T22:51:44.659Z,28.80
2022-08-20T22:54:21.109Z,26.85
2022-08-20T22:56:51.848Z,27.33
2022-08-20T22:59:24.267Z,26.52
2022-08-20T23:01:56.486Z,29.08
2022-08-20T23:04:30.307Z,26.20
2022-08-20T23:07:01.522Z,26.48
2022-08-20T23:09:32.135Z,25.70
2022-08-20T23:12:02.177Z,25.97
2022-08-20T23:14:32.492Z,26.13
2022-08-20T23:17:12.645Z,26.70
2022-08-20T23:19:44.361Z,28.17
2022-08-20T23:22:15.073Z,26.73
2022-08-20T23:24:45.623Z,24.92
2022-08-20T23:27:18.753Z,28.33
2022-08-20T23:29:49.463Z,23.27
2022-08-20T23:36:37.495Z,23.08
2022-08-20T23:39:08.217Z,24.25
2022-08-20T23:44:26.569Z,22.60
2022-08-20T23:46:59.618Z,22.23
2022-08-20T23:49:31.025Z,19.02
2022-08-20T23:52:04.274Z,19.20
2022-08-20T23:54:34.681Z,19.48
2022-08-20T23:57:08.027Z,17.00
2022-08-20T23:59:38.558Z,19.23
